Terminal Aerodrome Forecast
Issued by NWS

Home | Current Version | Previous Version | Graphics & Text | Print | Product List | Glossary On
Versions: 1 2 3 4 5 6 7 8 9 10 11 12 13 14 15 16 17 18 19 20 21 22 23
000
FTUS43 KBIS 271500 AAB
TAFJMS
TAF AMD
KJMS 271538Z 2716/2812 09003KT P6SM FEW005 SCT030
     FM271700 17005KT P6SM SCT040
     FM280800 15005KT P6SM VCSH BKN040=

USA.gov is the U.S. government's official web portal to all federal, state and local government web resources and services.